sensor_id;sensor_type;location;lat;lon;timestamp;P1;durP1;ratioP1;P2;durP2;ratioP2
1410;SDS011;700;51.906;8.404;2022-08-20T00:01:39;19.60;;;17.70;;
1410;SDS011;700;51.906;8.404;2022-08-20T00:06:40;22.23;;;20.13;;
1410;SDS011;700;51.906;8.404;2022-08-20T00:11:44;21.70;;;19.60;;
1410;SDS011;700;51.906;8.404;2022-08-20T00:16:45;21.00;;;18.90;;
1410;SDS011;700;51.906;8.404;2022-08-20T00:21:49;19.83;;;17.90;;
1410;SDS011;700;51.906;8.404;2022-08-20T00:26:52;24.00;;;20.60;;
1410;SDS011;700;51.906;8.404;2022-08-20T00:31:55;21.33;;;19.20;;
1410;SDS011;700;51.906;8.404;2022-08-20T00:36:55;19.90;;;17.80;;
1410;SDS011;700;51.906;8.404;2022-08-20T00:41:58;20.57;;;18.57;;
1410;SDS011;700;51.906;8.404;2022-08-20T00:46:59;20.77;;;18.87;;
1410;SDS011;700;51.906;8.404;2022-08-20T00:52:05;21.27;;;19.27;;
1410;SDS011;700;51.906;8.404;2022-08-20T00:57:26;19.63;;;17.67;;
1410;SDS011;700;51.906;8.404;2022-08-20T01:02:31;19.83;;;17.83;;
1410;SDS011;700;51.906;8.404;2022-08-20T01:07:35;20.43;;;18.40;;
1410;SDS011;700;51.906;8.404;2022-08-20T01:12:40;19.23;;;17.37;;
1410;SDS011;700;51.906;8.404;2022-08-20T01:17:46;20.77;;;18.83;;
1410;SDS011;700;51.906;8.404;2022-08-20T01:28:08;19.87;;;17.73;;
1410;SDS011;700;51.906;8.404;2022-08-20T01:33:11;19.70;;;17.70;;
1410;SDS011;700;51.906;8.404;2022-08-20T01:38:12;21.17;;;19.17;;
1410;SDS011;700;51.906;8.404;2022-08-20T01:43:16;19.00;;;17.07;;
1410;SDS011;700;51.906;8.404;2022-08-20T01:48:21;20.03;;;17.90;;
1410;SDS011;700;51.906;8.404;2022-08-20T01:53:27;17.43;;;15.77;;
1410;SDS011;700;51.906;8.404;2022-08-20T01:58:39;17.17;;;15.37;;
1410;SDS011;700;51.906;8.404;2022-08-20T02:03:42;17.00;;;15.37;;
1410;SDS011;700;51.906;8.404;2022-08-20T02:08:43;18.30;;;16.43;;
1410;SDS011;700;51.906;8.404;2022-08-20T02:13:44;16.80;;;15.20;;
1410;SDS011;700;51.906;8.404;2022-08-20T02:18:46;17.33;;;15.53;;
1410;SDS011;700;51.906;8.404;2022-08-20T02:23:53;16.30;;;14.63;;
1410;SDS011;700;51.906;8.404;2022-08-20T02:28:54;17.57;;;15.97;;
1410;SDS011;700;51.906;8.404;2022-08-20T02:33:56;17.77;;;16.07;;
1410;SDS011;700;51.906;8.404;2022-08-20T02:38:56;20.43;;;17.10;;
1410;SDS011;700;51.906;8.404;2022-08-20T02:43:57;18.10;;;16.40;;
1410;SDS011;700;51.906;8.404;2022-08-20T02:48:58;19.50;;;17.60;;
1410;SDS011;700;51.906;8.404;2022-08-20T02:53:59;20.20;;;18.13;;
1410;SDS011;700;51.906;8.404;2022-08-20T02:59:00;19.70;;;17.83;;
1410;SDS011;700;51.906;8.404;2022-08-20T03:04:05;19.10;;;17.17;;
1410;SDS011;700;51.906;8.404;2022-08-20T03:09:06;22.10;;;19.83;;
1410;SDS011;700;51.906;8.404;2022-08-20T03:14:11;20.10;;;17.93;;
1410;SDS011;700;51.906;8.404;2022-08-20T03:19:12;21.77;;;18.87;;
1410;SDS011;700;51.906;8.404;2022-08-20T03:24:15;20.80;;;18.70;;
1410;SDS011;700;51.906;8.404;2022-08-20T03:29:16;22.83;;;20.30;;
1410;SDS011;700;51.906;8.404;2022-08-20T03:34:19;24.17;;;21.57;;
1410;SDS011;700;51.906;8.404;2022-08-20T03:39:22;22.03;;;19.43;;
1410;SDS011;700;51.906;8.404;2022-08-20T03:44:23;21.80;;;19.50;;
1410;SDS011;700;51.906;8.404;2022-08-20T03:49:28;21.73;;;18.97;;
1410;SDS011;700;51.906;8.404;2022-08-20T03:54:28;21.33;;;19.13;;
1410;SDS011;700;51.906;8.404;2022-08-20T03:59:29;21.97;;;19.63;;
1410;SDS011;700;51.906;8.404;2022-08-20T04:04:32;20.60;;;18.40;;
1410;SDS011;700;51.906;8.404;2022-08-20T04:09:33;20.40;;;18.30;;
1410;SDS011;700;51.906;8.404;2022-08-20T04:14:39;20.33;;;17.67;;
1410;SDS011;700;51.906;8.404;2022-08-20T04:19:40;22.57;;;20.27;;
1410;SDS011;700;51.906;8.404;2022-08-20T04:24:41;23.13;;;20.83;;
1410;SDS011;700;51.906;8.404;2022-08-20T04:29:42;22.50;;;20.30;;
1410;SDS011;700;51.906;8.404;2022-08-20T04:34:43;22.53;;;20.27;;
1410;SDS011;700;51.906;8.404;2022-08-20T04:39:44;21.17;;;19.07;;
1410;SDS011;700;51.906;8.404;2022-08-20T04:45:04;21.77;;;19.63;;
1410;SDS011;700;51.906;8.404;2022-08-20T04:50:09;19.10;;;17.20;;
1410;SDS011;700;51.906;8.404;2022-08-20T04:55:13;20.30;;;18.30;;
1410;SDS011;700;51.906;8.404;2022-08-20T05:00:18;20.17;;;18.17;;
1410;SDS011;700;51.906;8.404;2022-08-20T05:05:21;21.93;;;19.73;;
1410;SDS011;700;51.906;8.404;2022-08-20T05:10:24;21.00;;;18.73;;
1410;SDS011;700;51.906;8.404;2022-08-20T05:15:25;19.53;;;17.53;;
1410;SDS011;700;51.906;8.404;2022-08-20T05:20:28;17.37;;;15.80;;
1410;SDS011;700;51.906;8.404;2022-08-20T05:25:34;18.60;;;16.70;;
1410;SDS011;700;51.906;8.404;2022-08-20T05:30:35;16.73;;;15.03;;
1410;SDS011;700;51.906;8.404;2022-08-20T05:35:38;19.37;;;17.57;;
1410;SDS011;700;51.906;8.404;2022-08-20T05:40:44;20.00;;;17.83;;
1410;SDS011;700;51.906;8.404;2022-08-20T05:45:45;18.83;;;16.90;;
1410;SDS011;700;51.906;8.404;2022-08-20T05:50:51;18.13;;;16.43;;
1410;SDS011;700;51.906;8.404;2022-08-20T05:55:53;17.70;;;16.00;;
1410;SDS011;700;51.906;8.404;2022-08-20T06:00:54;17.87;;;16.17;;
1410;SDS011;700;51.906;8.404;2022-08-20T06:05:54;22.30;;;19.97;;
1410;SDS011;700;51.906;8.404;2022-08-20T06:10:55;17.70;;;15.90;;
1410;SDS011;700;51.906;8.404;2022-08-20T06:15:56;18.90;;;16.97;;
1410;SDS011;700;51.906;8.404;2022-08-20T06:20:57;18.83;;;16.80;;
1410;SDS011;700;51.906;8.404;2022-08-20T06:25:58;19.00;;;15.33;;
1410;SDS011;700;51.906;8.404;2022-08-20T06:31:00;17.53;;;15.83;;
1410;SDS011;700;51.906;8.404;2022-08-20T06:36:02;18.03;;;16.33;;
1410;SDS011;700;51.906;8.404;2022-08-20T06:41:06;17.10;;;15.50;;
1410;SDS011;700;51.906;8.404;2022-08-20T06:46:08;16.43;;;14.77;;
1410;SDS011;700;51.906;8.404;2022-08-20T06:51:09;15.33;;;13.83;;
1410;SDS011;700;51.906;8.404;2022-08-20T06:56:12;13.57;;;12.20;;
1410;SDS011;700;51.906;8.404;2022-08-20T07:01:15;11.23;;;10.03;;
1410;SDS011;700;51.906;8.404;2022-08-20T07:06:23;10.63;;;9.63;;
1410;SDS011;700;51.906;8.404;2022-08-20T07:11:24;9.30;;;8.20;;
1410;SDS011;700;51.906;8.404;2022-08-20T07:16:25;8.27;;;7.53;;
1410;SDS011;700;51.906;8.404;2022-08-20T07:21:26;7.30;;;6.60;;
1410;SDS011;700;51.906;8.404;2022-08-20T07:26:27;7.77;;;7.07;;
1410;SDS011;700;51.906;8.404;2022-08-20T07:31:27;8.03;;;6.70;;
1410;SDS011;700;51.906;8.404;2022-08-20T07:36:49;8.03;;;6.37;;
1410;SDS011;700;51.906;8.404;2022-08-20T07:41:52;6.33;;;5.73;;
1410;SDS011;700;51.906;8.404;2022-08-20T07:47:02;6.70;;;5.97;;
1410;SDS011;700;51.906;8.404;2022-08-20T07:52:06;5.60;;;4.53;;
1410;SDS011;700;51.906;8.404;2022-08-20T07:57:09;5.03;;;4.50;;
1410;SDS011;700;51.906;8.404;2022-08-20T08:02:10;6.63;;;5.47;;
1410;SDS011;700;51.906;8.404;2022-08-20T08:07:13;4.70;;;4.30;;
1410;SDS011;700;51.906;8.404;2022-08-20T08:12:15;5.90;;;5.37;;
1410;SDS011;700;51.906;8.404;2022-08-20T08:17:16;6.60;;;5.70;;
1410;SDS011;700;51.906;8.404;2022-08-20T08:22:18;7.97;;;7.17;;
1410;SDS011;700;51.906;8.404;2022-08-20T08:27:19;9.57;;;8.37;;
1410;SDS011;700;51.906;8.404;2022-08-20T08:32:23;7.50;;;6.10;;
1410;SDS011;700;51.906;8.404;2022-08-20T08:37:24;8.07;;;7.27;;
1410;SDS011;700;51.906;8.404;2022-08-20T08:42:28;7.73;;;6.83;;
1410;SDS011;700;51.906;8.404;2022-08-20T08:47:42;9.70;;;6.50;;
1410;SDS011;700;51.906;8.404;2022-08-20T08:52:44;5.50;;;5.00;;
1410;SDS011;700;51.906;8.404;2022-08-20T08:57:47;5.17;;;4.67;;
1410;SDS011;700;51.906;8.404;2022-08-20T09:08:35;4.53;;;4.03;;
1410;SDS011;700;51.906;8.404;2022-08-20T09:13:49;5.33;;;4.83;;
1410;SDS011;700;51.906;8.404;2022-08-20T09:18:53;6.23;;;3.80;;
1410;SDS011;700;51.906;8.404;2022-08-20T09:23:56;4.13;;;3.83;;
1410;SDS011;700;51.906;8.404;2022-08-20T09:28:59;5.03;;;4.53;;
1410;SDS011;700;51.906;8.404;2022-08-20T09:33:59;6.13;;;5.00;;
1410;SDS011;700;51.906;8.404;2022-08-20T09:39:02;3.90;;;3.37;;
1410;SDS011;700;51.906;8.404;2022-08-20T09:44:03;5.40;;;4.73;;
1410;SDS011;700;51.906;8.404;2022-08-20T09:49:04;5.13;;;4.73;;
1410;SDS011;700;51.906;8.404;2022-08-20T09:54:04;4.40;;;4.00;;
1410;SDS011;700;51.906;8.404;2022-08-20T09:59:05;6.33;;;5.70;;
1410;SDS011;700;51.906;8.404;2022-08-20T10:04:06;6.30;;;5.70;;
1410;SDS011;700;51.906;8.404;2022-08-20T10:09:07;6.50;;;4.90;;
1410;SDS011;700;51.906;8.404;2022-08-20T10:14:08;6.27;;;5.67;;
1410;SDS011;700;51.906;8.404;2022-08-20T10:19:08;6.60;;;5.90;;
1410;SDS011;700;51.906;8.404;2022-08-20T10:24:09;7.60;;;6.80;;
1410;SDS011;700;51.906;8.404;2022-08-20T10:29:10;6.13;;;5.10;;
1410;SDS011;700;51.906;8.404;2022-08-20T10:34:13;5.50;;;4.87;;
1410;SDS011;700;51.906;8.404;2022-08-20T10:39:16;5.63;;;5.07;;
1410;SDS011;700;51.906;8.404;2022-08-20T10:44:19;5.63;;;4.77;;
1410;SDS011;700;51.906;8.404;2022-08-20T10:49:19;7.87;;;5.90;;
1410;SDS011;700;51.906;8.404;2022-08-20T10:54:20;6.37;;;4.70;;
1410;SDS011;700;51.906;8.404;2022-08-20T10:59:21;5.30;;;4.00;;
1410;SDS011;700;51.906;8.404;2022-08-20T11:04:23;4.73;;;4.33;;
1410;SDS011;700;51.906;8.404;2022-08-20T11:09:24;5.20;;;3.90;;
1410;SDS011;700;51.906;8.404;2022-08-20T11:14:27;4.37;;;3.97;;
1410;SDS011;700;51.906;8.404;2022-08-20T11:19:28;3.83;;;2.80;;
1410;SDS011;700;51.906;8.404;2022-08-20T11:24:31;4.43;;;3.63;;
1410;SDS011;700;51.906;8.404;2022-08-20T11:29:34;4.33;;;3.83;;
1410;SDS011;700;51.906;8.404;2022-08-20T11:34:38;5.60;;;3.37;;
1410;SDS011;700;51.906;8.404;2022-08-20T11:39:38;3.50;;;2.73;;
1410;SDS011;700;51.906;8.404;2022-08-20T11:44:43;3.23;;;2.90;;
1410;SDS011;700;51.906;8.404;2022-08-20T11:49:44;4.20;;;3.30;;
1410;SDS011;700;51.906;8.404;2022-08-20T11:54:55;4.70;;;3.50;;
1410;SDS011;700;51.906;8.404;2022-08-20T11:59:57;3.30;;;2.70;;
1410;SDS011;700;51.906;8.404;2022-08-20T12:04:59;3.70;;;2.73;;
1410;SDS011;700;51.906;8.404;2022-08-20T12:10:03;3.27;;;2.80;;
1410;SDS011;700;51.906;8.404;2022-08-20T12:15:08;3.67;;;2.80;;
1410;SDS011;700;51.906;8.404;2022-08-20T12:20:10;3.53;;;2.37;;
1410;SDS011;700;51.906;8.404;2022-08-20T12:25:12;3.53;;;2.87;;
1410;SDS011;700;51.906;8.404;2022-08-20T12:30:15;2.80;;;2.50;;
1410;SDS011;700;51.906;8.404;2022-08-20T12:35:19;4.50;;;2.67;;
1410;SDS011;700;51.906;8.404;2022-08-20T12:40:24;7.07;;;2.20;;
1410;SDS011;700;51.906;8.404;2022-08-20T12:45:28;2.83;;;1.93;;
1410;SDS011;700;51.906;8.404;2022-08-20T12:50:32;2.60;;;1.90;;
1410;SDS011;700;51.906;8.404;2022-08-20T12:55:34;3.40;;;2.43;;
1410;SDS011;700;51.906;8.404;2022-08-20T13:00:36;3.00;;;2.07;;
1410;SDS011;700;51.906;8.404;2022-08-20T13:05:43;2.90;;;2.13;;
1410;SDS011;700;51.906;8.404;2022-08-20T13:10:44;4.40;;;2.70;;
1410;SDS011;700;51.906;8.404;2022-08-20T13:15:48;3.03;;;2.53;;
1410;SDS011;700;51.906;8.404;2022-08-20T13:20:49;2.87;;;2.57;;
1410;SDS011;700;51.906;8.404;2022-08-20T13:25:50;3.97;;;2.87;;
1410;SDS011;700;51.906;8.404;2022-08-20T13:30:51;3.03;;;2.60;;
1410;SDS011;700;51.906;8.404;2022-08-20T13:35:52;3.20;;;2.00;;
1410;SDS011;700;51.906;8.404;2022-08-20T13:40:55;5.23;;;2.77;;
1410;SDS011;700;51.906;8.404;2022-08-20T13:45:56;7.63;;;2.80;;
1410;SDS011;700;51.906;8.404;2022-08-20T13:50:56;3.60;;;2.67;;
1410;SDS011;700;51.906;8.404;2022-08-20T13:55:59;2.40;;;2.00;;
1410;SDS011;700;51.906;8.404;2022-08-20T14:01:00;2.70;;;2.30;;
1410;SDS011;700;51.906;8.404;2022-08-20T14:06:01;2.90;;;2.60;;
1410;SDS011;700;51.906;8.404;2022-08-20T14:11:07;6.73;;;3.10;;
1410;SDS011;700;51.906;8.404;2022-08-20T14:16:08;5.50;;;3.87;;
1410;SDS011;700;51.906;8.404;2022-08-20T14:21:11;6.43;;;3.67;;
1410;SDS011;700;51.906;8.404;2022-08-20T14:26:14;6.77;;;3.80;;
1410;SDS011;700;51.906;8.404;2022-08-20T14:31:17;8.87;;;5.80;;
1410;SDS011;700;51.906;8.404;2022-08-20T14:36:19;11.40;;;8.80;;
1410;SDS011;700;51.906;8.404;2022-08-20T14:41:24;12.03;;;6.40;;
1410;SDS011;700;51.906;8.404;2022-08-20T14:46:27;7.00;;;5.30;;
1410;SDS011;700;51.906;8.404;2022-08-20T14:51:28;8.03;;;6.80;;
1410;SDS011;700;51.906;8.404;2022-08-20T14:56:31;9.10;;;6.70;;
1410;SDS011;700;51.906;8.404;2022-08-20T15:01:34;7.47;;;6.37;;
1410;SDS011;700;51.906;8.404;2022-08-20T15:06:35;10.23;;;8.20;;
1410;SDS011;700;51.906;8.404;2022-08-20T15:11:35;7.90;;;7.20;;
1410;SDS011;700;51.906;8.404;2022-08-20T15:16:38;6.90;;;6.30;;
1410;SDS011;700;51.906;8.404;2022-08-20T15:21:39;9.20;;;6.80;;
1410;SDS011;700;51.906;8.404;2022-08-20T15:26:42;9.97;;;7.70;;
1410;SDS011;700;51.906;8.404;2022-08-20T15:31:43;7.10;;;5.00;;
1410;SDS011;700;51.906;8.404;2022-08-20T15:36:44;6.93;;;4.80;;
1410;SDS011;700;51.906;8.404;2022-08-20T15:41:49;10.67;;;6.17;;
1410;SDS011;700;51.906;8.404;2022-08-20T15:46:50;6.60;;;4.67;;
1410;SDS011;700;51.906;8.404;2022-08-20T15:51:51;8.07;;;4.57;;
1410;SDS011;700;51.906;8.404;2022-08-20T15:57:09;6.83;;;5.43;;
1410;SDS011;700;51.906;8.404;2022-08-20T16:18:47;4.80;;;3.33;;
1410;SDS011;700;51.906;8.404;2022-08-20T16:23:50;5.23;;;3.00;;
1410;SDS011;700;51.906;8.404;2022-08-20T16:29:11;5.10;;;3.03;;
1410;SDS011;700;51.906;8.404;2022-08-20T16:39:23;4.97;;;2.67;;
1410;SDS011;700;51.906;8.404;2022-08-20T16:44:32;4.67;;;2.87;;
1410;SDS011;700;51.906;8.404;2022-08-20T16:49:34;5.90;;;3.10;;
1410;SDS011;700;51.906;8.404;2022-08-20T16:54:42;5.80;;;3.20;;
1410;SDS011;700;51.906;8.404;2022-08-20T17:04:54;5.27;;;3.40;;
1410;SDS011;700;51.906;8.404;2022-08-20T17:10:15;4.50;;;3.80;;
1410;SDS011;700;51.906;8.404;2022-08-20T17:15:18;4.97;;;3.67;;
1410;SDS011;700;51.906;8.404;2022-08-20T17:20:20;7.93;;;3.60;;
1410;SDS011;700;51.906;8.404;2022-08-20T17:25:29;5.63;;;3.83;;
1410;SDS011;700;51.906;8.404;2022-08-20T17:30:35;5.07;;;3.33;;
1410;SDS011;700;51.906;8.404;2022-08-20T17:35:39;5.43;;;2.83;;
1410;SDS011;700;51.906;8.404;2022-08-20T17:40:41;6.30;;;3.23;;
1410;SDS011;700;51.906;8.404;2022-08-20T17:45:45;5.57;;;3.30;;
1410;SDS011;700;51.906;8.404;2022-08-20T17:50:46;7.40;;;3.10;;
1410;SDS011;700;51.906;8.404;2022-08-20T17:55:53;5.77;;;2.90;;
1410;SDS011;700;51.906;8.404;2022-08-20T18:01:01;8.07;;;3.73;;
1410;SDS011;700;51.906;8.404;2022-08-20T18:06:05;8.40;;;3.60;;
1410;SDS011;700;51.906;8.404;2022-08-20T18:16:13;7.77;;;3.23;;
1410;SDS011;700;51.906;8.404;2022-08-20T18:21:37;6.13;;;3.20;;
1410;SDS011;700;51.906;8.404;2022-08-20T18:26:48;6.97;;;3.80;;
1410;SDS011;700;51.906;8.404;2022-08-20T18:31:56;8.10;;;4.00;;
1410;SDS011;700;51.906;8.404;2022-08-20T18:42:09;5.93;;;3.70;;
1410;SDS011;700;51.906;8.404;2022-08-20T18:52:36;8.70;;;4.17;;
1410;SDS011;700;51.906;8.404;2022-08-20T18:57:39;7.73;;;3.80;;
1410;SDS011;700;51.906;8.404;2022-08-20T19:03:02;5.77;;;3.53;;
1410;SDS011;700;51.906;8.404;2022-08-20T19:08:09;7.40;;;4.10;;
1410;SDS011;700;51.906;8.404;2022-08-20T19:18:20;12.33;;;4.97;;
1410;SDS011;700;51.906;8.404;2022-08-20T19:23:26;7.17;;;4.40;;
1410;SDS011;700;51.906;8.404;2022-08-20T19:28:29;9.10;;;5.83;;
1410;SDS011;700;51.906;8.404;2022-08-20T19:33:37;13.50;;;6.27;;
1410;SDS011;700;51.906;8.404;2022-08-20T19:38:50;7.13;;;6.43;;
1410;SDS011;700;51.906;8.404;2022-08-20T19:43:52;9.60;;;6.37;;
1410;SDS011;700;51.906;8.404;2022-08-20T19:49:05;8.50;;;7.50;;
1410;SDS011;700;51.906;8.404;2022-08-20T19:54:17;9.93;;;7.40;;
1410;SDS011;700;51.906;8.404;2022-08-20T19:59:18;9.90;;;7.37;;
1410;SDS011;700;51.906;8.404;2022-08-20T20:04:21;10.20;;;6.90;;
1410;SDS011;700;51.906;8.404;2022-08-20T20:09:25;10.47;;;7.87;;
1410;SDS011;700;51.906;8.404;2022-08-20T20:14:28;11.20;;;6.80;;
1410;SDS011;700;51.906;8.404;2022-08-20T20:19:54;9.37;;;7.67;;
1410;SDS011;700;51.906;8.404;2022-08-20T20:25:39;10.30;;;7.37;;
1410;SDS011;700;51.906;8.404;2022-08-20T20:30:25;13.60;;;11.77;;
1410;SDS011;700;51.906;8.404;2022-08-20T20:35:27;14.93;;;11.00;;
1410;SDS011;700;51.906;8.404;2022-08-20T20:40:31;11.70;;;10.50;;
1410;SDS011;700;51.906;8.404;2022-08-20T20:45:36;13.40;;;10.77;;
1410;SDS011;700;51.906;8.404;2022-08-20T20:50:41;11.90;;;9.60;;
1410;SDS011;700;51.906;8.404;2022-08-20T20:55:51;10.87;;;9.60;;
1410;SDS011;700;51.906;8.404;2022-08-20T21:00:53;10.27;;;8.87;;
1410;SDS011;700;51.906;8.404;2022-08-20T21:05:57;10.50;;;9.50;;
1410;SDS011;700;51.906;8.404;2022-08-20T21:11:00;11.47;;;9.70;;
1410;SDS011;700;51.906;8.404;2022-08-20T21:16:01;11.23;;;9.17;;
1410;SDS011;700;51.906;8.404;2022-08-20T21:21:03;10.63;;;8.87;;
1410;SDS011;700;51.906;8.404;2022-08-20T21:26:05;11.20;;;8.50;;
1410;SDS011;700;51.906;8.404;2022-08-20T21:31:06;10.57;;;9.33;;
1410;SDS011;700;51.906;8.404;2022-08-20T21:36:07;10.93;;;9.80;;
1410;SDS011;700;51.906;8.404;2022-08-20T21:41:07;10.47;;;8.90;;
1410;SDS011;700;51.906;8.404;2022-08-20T21:46:08;10.47;;;8.80;;
1410;SDS011;700;51.906;8.404;2022-08-20T21:51:11;10.20;;;9.20;;
1410;SDS011;700;51.906;8.404;2022-08-20T21:56:14;11.73;;;10.30;;
1410;SDS011;700;51.906;8.404;2022-08-20T22:01:17;12.60;;;11.40;;
1410;SDS011;700;51.906;8.404;2022-08-20T22:06:22;12.40;;;10.67;;
1410;SDS011;700;51.906;8.404;2022-08-20T22:11:26;11.17;;;9.27;;
1410;SDS011;700;51.906;8.404;2022-08-20T22:16:31;10.10;;;9.20;;
1410;SDS011;700;51.906;8.404;2022-08-20T22:21:36;11.33;;;8.93;;
1410;SDS011;700;51.906;8.404;2022-08-20T22:26:40;10.13;;;8.43;;
1410;SDS011;700;51.906;8.404;2022-08-20T22:31:41;8.80;;;7.90;;
1410;SDS011;700;51.906;8.404;2022-08-20T22:36:44;8.63;;;7.73;;
1410;SDS011;700;51.906;8.404;2022-08-20T22:41:48;9.70;;;8.33;;
1410;SDS011;700;51.906;8.404;2022-08-20T22:46:49;9.20;;;8.27;;
1410;SDS011;700;51.906;8.404;2022-08-20T22:51:51;10.13;;;8.37;;
1410;SDS011;700;51.906;8.404;2022-08-20T22:56:52;9.80;;;8.80;;
1410;SDS011;700;51.906;8.404;2022-08-20T23:01:54;10.77;;;9.20;;
1410;SDS011;700;51.906;8.404;2022-08-20T23:06:55;9.47;;;8.37;;
1410;SDS011;700;51.906;8.404;2022-08-20T23:11:59;8.80;;;7.90;;
1410;SDS011;700;51.906;8.404;2022-08-20T23:17:06;9.33;;;8.40;;
1410;SDS011;700;51.906;8.404;2022-08-20T23:22:13;9.10;;;7.90;;
1410;SDS011;700;51.906;8.404;2022-08-20T23:27:14;9.10;;;7.97;;
1410;SDS011;700;51.906;8.404;2022-08-20T23:32:17;10.80;;;8.13;;
1410;SDS011;700;51.906;8.404;2022-08-20T23:37:18;10.33;;;8.50;;
1410;SDS011;700;51.906;8.404;2022-08-20T23:42:21;10.87;;;8.17;;
1410;SDS011;700;51.906;8.404;2022-08-20T23:47:24;9.33;;;8.13;;
1410;SDS011;700;51.906;8.404;2022-08-20T23:52:27;10.00;;;8.80;;
1410;SDS011;700;51.906;8.404;2022-08-20T23:57:28;10.33;;;8.40;;
